sensor_id;sensor_type;location;lat;lon;timestamp;temperature;humidity
67572;SHT31;54397;47.506;19.158;2023-12-14T00:01:45;6.61;86.55
67572;SHT31;54397;47.506;19.158;2023-12-14T00:05:10;6.38;86.65
67572;SHT31;54397;47.506;19.158;2023-12-14T00:08:37;6.34;86.98
67572;SHT31;54397;47.506;19.158;2023-12-14T00:11:59;6.34;87.34
67572;SHT31;54397;47.506;19.158;2023-12-14T00:15:20;6.27;87.71
67572;SHT31;54397;47.506;19.158;2023-12-14T00:18:42;6.29;88.05
67572;SHT31;54397;47.506;19.158;2023-12-14T00:22:04;6.41;87.60
67572;SHT31;54397;47.506;19.158;2023-12-14T00:25:26;6.33;87.83
67572;SHT31;54397;47.506;19.158;2023-12-14T00:28:50;6.37;87.70
67572;SHT31;54397;47.506;19.158;2023-12-14T00:32:22;6.51;87.30
67572;SHT31;54397;47.506;19.158;2023-12-14T00:35:46;6.51;86.98
67572;SHT31;54397;47.506;19.158;2023-12-14T00:39:10;6.74;86.24
67572;SHT31;54397;47.506;19.158;2023-12-14T00:42:33;6.57;86.76
67572;SHT31;54397;47.506;19.158;2023-12-14T00:45:58;6.59;86.46
67572;SHT31;54397;47.506;19.158;2023-12-14T00:49:19;6.78;85.54
67572;SHT31;54397;47.506;19.158;2023-12-14T00:52:43;6.86;85.14
67572;SHT31;54397;47.506;19.158;2023-12-14T00:56:10;6.36;86.69
67572;SHT31;54397;47.506;19.158;2023-12-14T00:59:32;6.27;87.14
67572;SHT31;54397;47.506;19.158;2023-12-14T01:02:54;6.40;87.13
67572;SHT31;54397;47.506;19.158;2023-12-14T01:06:15;6.50;86.27
67572;SHT31;54397;47.506;19.158;2023-12-14T01:09:38;6.13;87.90
67572;SHT31;54397;47.506;19.158;2023-12-14T01:13:02;6.13;87.86
67572;SHT31;54397;47.506;19.158;2023-12-14T01:16:26;6.21;88.15
67572;SHT31;54397;47.506;19.158;2023-12-14T01:19:48;6.44;87.70
67572;SHT31;54397;47.506;19.158;2023-12-14T01:23:10;6.54;87.23
67572;SHT31;54397;47.506;19.158;2023-12-14T01:26:37;6.71;86.51
67572;SHT31;54397;47.506;19.158;2023-12-14T01:29:58;6.71;86.74
67572;SHT31;54397;47.506;19.158;2023-12-14T01:33:20;6.61;86.83
67572;SHT31;54397;47.506;19.158;2023-12-14T01:36:42;6.67;86.39
67572;SHT31;54397;47.506;19.158;2023-12-14T01:40:05;6.69;86.06
67572;SHT31;54397;47.506;19.158;2023-12-14T01:43:29;6.65;86.21
67572;SHT31;54397;47.506;19.158;2023-12-14T01:46:54;6.69;86.11
67572;SHT31;54397;47.506;19.158;2023-12-14T01:50:18;6.57;86.31
67572;SHT31;54397;47.506;19.158;2023-12-14T01:53:40;6.41;86.69
67572;SHT31;54397;47.506;19.158;2023-12-14T01:57:02;6.31;87.34
67572;SHT31;54397;47.506;19.158;2023-12-14T02:03:56;6.50;86.98
67572;SHT31;54397;47.506;19.158;2023-12-14T02:07:17;6.34;87.47
67572;SHT31;54397;47.506;19.158;2023-12-14T02:10:39;6.34;87.18
67572;SHT31;54397;47.506;19.158;2023-12-14T02:14:06;6.24;87.72
67572;SHT31;54397;47.506;19.158;2023-12-14T02:17:30;6.29;88.06
67572;SHT31;54397;47.506;19.158;2023-12-14T02:20:54;6.58;86.90
67572;SHT31;54397;47.506;19.158;2023-12-14T02:24:18;6.67;86.58
67572;SHT31;54397;47.506;19.158;2023-12-14T02:27:40;6.58;86.75
67572;SHT31;54397;47.506;19.158;2023-12-14T02:31:01;6.75;86.40
67572;SHT31;54397;47.506;19.158;2023-12-14T02:34:23;6.57;86.96
67572;SHT31;54397;47.506;19.158;2023-12-14T02:37:46;6.75;86.74
67572;SHT31;54397;47.506;19.158;2023-12-14T02:41:10;6.61;86.82
67572;SHT31;54397;47.506;19.158;2023-12-14T02:44:32;6.58;86.81
67572;SHT31;54397;47.506;19.158;2023-12-14T02:47:54;6.29;87.70
67572;SHT31;54397;47.506;19.158;2023-12-14T02:51:16;6.33;87.65
67572;SHT31;54397;47.506;19.158;2023-12-14T02:54:39;6.55;87.58
67572;SHT31;54397;47.506;19.158;2023-12-14T02:58:06;6.74;86.82
67572;SHT31;54397;47.506;19.158;2023-12-14T03:01:31;6.75;86.65
67572;SHT31;54397;47.506;19.158;2023-12-14T03:04:56;6.75;86.70
67572;SHT31;54397;47.506;19.158;2023-12-14T03:08:17;6.68;86.98
67572;SHT31;54397;47.506;19.158;2023-12-14T03:11:39;6.57;87.45
67572;SHT31;54397;47.506;19.158;2023-12-14T03:15:03;6.64;87.02
67572;SHT31;54397;47.506;19.158;2023-12-14T03:18:28;6.55;86.44
67572;SHT31;54397;47.506;19.158;2023-12-14T03:21:53;6.69;86.25
67572;SHT31;54397;47.506;19.158;2023-12-14T03:25:14;6.81;85.81
67572;SHT31;54397;47.506;19.158;2023-12-14T03:28:36;6.57;86.65
67572;SHT31;54397;47.506;19.158;2023-12-14T03:31:58;6.20;87.26
67572;SHT31;54397;47.506;19.158;2023-12-14T03:35:20;5.93;88.67
67572;SHT31;54397;47.506;19.158;2023-12-14T03:38:46;5.92;89.07
67572;SHT31;54397;47.506;19.158;2023-12-14T03:42:10;6.20;88.60
67572;SHT31;54397;47.506;19.158;2023-12-14T03:45:34;6.34;88.03
67572;SHT31;54397;47.506;19.158;2023-12-14T03:48:56;6.06;88.02
67572;SHT31;54397;47.506;19.158;2023-12-14T03:52:20;6.11;88.35
67572;SHT31;54397;47.506;19.158;2023-12-14T03:55:44;5.83;89.35
67572;SHT31;54397;47.506;19.158;2023-12-14T03:59:06;5.79;89.58
67572;SHT31;54397;47.506;19.158;2023-12-14T04:02:28;5.89;89.46
67572;SHT31;54397;47.506;19.158;2023-12-14T04:05:49;5.93;89.15
67572;SHT31;54397;47.506;19.158;2023-12-14T04:09:11;6.17;88.75
67572;SHT31;54397;47.506;19.158;2023-12-14T04:12:33;6.27;88.09
67572;SHT31;54397;47.506;19.158;2023-12-14T04:15:57;6.51;87.11
67572;SHT31;54397;47.506;19.158;2023-12-14T04:19:19;6.52;86.97
67572;SHT31;54397;47.506;19.158;2023-12-14T04:22:44;6.63;86.54
67572;SHT31;54397;47.506;19.158;2023-12-14T04:26:09;6.36;87.03
67572;SHT31;54397;47.506;19.158;2023-12-14T04:29:31;6.36;86.85
67572;SHT31;54397;47.506;19.158;2023-12-14T04:32:53;6.00;87.92
67572;SHT31;54397;47.506;19.158;2023-12-14T04:36:19;6.26;87.80
67572;SHT31;54397;47.506;19.158;2023-12-14T04:39:43;6.17;87.73
67572;SHT31;54397;47.506;19.158;2023-12-14T04:43:07;6.50;86.82
67572;SHT31;54397;47.506;19.158;2023-12-14T04:46:31;6.55;86.64
67572;SHT31;54397;47.506;19.158;2023-12-14T04:49:53;6.44;87.03
67572;SHT31;54397;47.506;19.158;2023-12-14T04:53:14;6.57;86.13
67572;SHT31;54397;47.506;19.158;2023-12-14T04:56:41;6.34;86.78
67572;SHT31;54397;47.506;19.158;2023-12-14T05:00:06;6.50;86.31
67572;SHT31;54397;47.506;19.158;2023-12-14T05:03:29;6.42;86.28
67572;SHT31;54397;47.506;19.158;2023-12-14T05:06:53;6.34;86.95
67572;SHT31;54397;47.506;19.158;2023-12-14T05:10:15;6.31;87.39
67572;SHT31;54397;47.506;19.158;2023-12-14T05:13:43;6.31;87.44
67572;SHT31;54397;47.506;19.158;2023-12-14T05:17:07;6.05;88.19
67572;SHT31;54397;47.506;19.158;2023-12-14T05:20:29;6.14;87.82
67572;SHT31;54397;47.506;19.158;2023-12-14T05:23:51;6.13;88.05
67572;SHT31;54397;47.506;19.158;2023-12-14T05:27:12;6.17;87.86
67572;SHT31;54397;47.506;19.158;2023-12-14T05:30:36;6.00;88.77
67572;SHT31;54397;47.506;19.158;2023-12-14T05:33:58;6.00;87.57
67572;SHT31;54397;47.506;19.158;2023-12-14T05:37:25;6.24;87.55
67572;SHT31;54397;47.506;19.158;2023-12-14T05:40:49;6.52;86.66
67572;SHT31;54397;47.506;19.158;2023-12-14T05:44:13;6.36;86.14
67572;SHT31;54397;47.506;19.158;2023-12-14T05:47:37;6.14;87.06
67572;SHT31;54397;47.506;19.158;2023-12-14T05:51:00;6.30;86.68
67572;SHT31;54397;47.506;19.158;2023-12-14T05:54:25;5.76;88.51
67572;SHT31;54397;47.506;19.158;2023-12-14T05:57:49;5.88;88.38
67572;SHT31;54397;47.506;19.158;2023-12-14T06:01:11;5.79;88.98
67572;SHT31;54397;47.506;19.158;2023-12-14T06:04:33;5.93;88.63
67572;SHT31;54397;47.506;19.158;2023-12-14T06:07:54;5.93;88.29
67572;SHT31;54397;47.506;19.158;2023-12-14T06:11:18;5.85;88.55
67572;SHT31;54397;47.506;19.158;2023-12-14T06:14:43;5.71;88.58
67572;SHT31;54397;47.506;19.158;2023-12-14T06:18:06;5.83;88.47
67572;SHT31;54397;47.506;19.158;2023-12-14T06:21:30;5.75;89.23
67572;SHT31;54397;47.506;19.158;2023-12-14T06:24:55;6.02;88.47
67572;SHT31;54397;47.506;19.158;2023-12-14T06:28:21;6.06;88.40
67572;SHT31;54397;47.506;19.158;2023-12-14T06:31:45;6.13;88.14
67572;SHT31;54397;47.506;19.158;2023-12-14T06:35:10;6.21;87.49
67572;SHT31;54397;47.506;19.158;2023-12-14T06:38:38;6.27;87.46
67572;SHT31;54397;47.506;19.158;2023-12-14T06:42:00;5.89;88.10
67572;SHT31;54397;47.506;19.158;2023-12-14T06:45:21;5.99;88.50
67572;SHT31;54397;47.506;19.158;2023-12-14T06:48:43;6.09;88.10
67572;SHT31;54397;47.506;19.158;2023-12-14T06:52:08;6.11;87.72
67572;SHT31;54397;47.506;19.158;2023-12-14T06:55:30;6.16;87.67
67572;SHT31;54397;47.506;19.158;2023-12-14T06:58:54;6.20;87.57
67572;SHT31;54397;47.506;19.158;2023-12-14T07:02:19;6.19;87.47
67572;SHT31;54397;47.506;19.158;2023-12-14T07:05:43;6.20;87.55
67572;SHT31;54397;47.506;19.158;2023-12-14T07:09:04;6.11;87.59
67572;SHT31;54397;47.506;19.158;2023-12-14T07:12:26;6.05;87.81
67572;SHT31;54397;47.506;19.158;2023-12-14T07:15:48;5.89;88.45
67572;SHT31;54397;47.506;19.158;2023-12-14T07:19:10;6.05;88.57
67572;SHT31;54397;47.506;19.158;2023-12-14T07:22:32;6.10;87.35
67572;SHT31;54397;47.506;19.158;2023-12-14T07:25:57;6.20;87.35
67572;SHT31;54397;47.506;19.158;2023-12-14T07:29:23;6.14;87.88
67572;SHT31;54397;47.506;19.158;2023-12-14T07:32:45;6.45;86.99
67572;SHT31;54397;47.506;19.158;2023-12-14T07:36:13;5.93;87.70
67572;SHT31;54397;47.506;19.158;2023-12-14T07:39:39;6.20;87.76
67572;SHT31;54397;47.506;19.158;2023-12-14T07:43:01;5.83;88.54
67572;SHT31;54397;47.506;19.158;2023-12-14T07:46:22;5.89;88.81
67572;SHT31;54397;47.506;19.158;2023-12-14T07:49:44;5.98;88.72
67572;SHT31;54397;47.506;19.158;2023-12-14T07:53:09;5.92;88.61
67572;SHT31;54397;47.506;19.158;2023-12-14T07:56:34;6.02;88.77
67572;SHT31;54397;47.506;19.158;2023-12-14T07:59:58;6.17;88.00
67572;SHT31;54397;47.506;19.158;2023-12-14T08:03:20;6.27;87.45
67572;SHT31;54397;47.506;19.158;2023-12-14T08:06:42;6.06;88.20
67572;SHT31;54397;47.506;19.158;2023-12-14T08:10:04;5.93;88.41
67572;SHT31;54397;47.506;19.158;2023-12-14T08:13:31;6.17;89.49
67572;SHT31;54397;47.506;19.158;2023-12-14T08:16:52;6.71;93.29
67572;SHT31;54397;47.506;19.158;2023-12-14T08:20:14;7.20;92.31
67572;SHT31;54397;47.506;19.158;2023-12-14T08:23:36;7.64;90.27
67572;SHT31;54397;47.506;19.158;2023-12-14T08:26:58;7.99;88.85
67572;SHT31;54397;47.506;19.158;2023-12-14T08:30:20;8.09;86.66
67572;SHT31;54397;47.506;19.158;2023-12-14T08:33:45;8.01;82.18
67572;SHT31;54397;47.506;19.158;2023-12-14T08:37:10;7.72;82.25
67572;SHT31;54397;47.506;19.158;2023-12-14T08:40:32;7.12;83.78
67572;SHT31;54397;47.506;19.158;2023-12-14T08:43:54;7.02;84.93
67572;SHT31;54397;47.506;19.158;2023-12-14T08:47:17;6.98;85.27
67572;SHT31;54397;47.506;19.158;2023-12-14T08:50:41;7.13;84.73
67572;SHT31;54397;47.506;19.158;2023-12-14T08:54:05;7.24;84.41
67572;SHT31;54397;47.506;19.158;2023-12-14T08:57:27;7.34;83.78
67572;SHT31;54397;47.506;19.158;2023-12-14T09:00:52;6.93;84.51
67572;SHT31;54397;47.506;19.158;2023-12-14T09:04:17;7.13;84.59
67572;SHT31;54397;47.506;19.158;2023-12-14T09:07:38;7.34;83.99
67572;SHT31;54397;47.506;19.158;2023-12-14T09:11:00;7.02;84.28
67572;SHT31;54397;47.506;19.158;2023-12-14T09:14:25;7.44;83.32
67572;SHT31;54397;47.506;19.158;2023-12-14T09:17:49;7.36;83.88
67572;SHT31;54397;47.506;19.158;2023-12-14T09:21:11;7.30;83.65
67572;SHT31;54397;47.506;19.158;2023-12-14T09:24:33;6.96;85.02
67572;SHT31;54397;47.506;19.158;2023-12-14T09:27:55;7.09;84.59
67572;SHT31;54397;47.506;19.158;2023-12-14T09:31:16;7.06;85.00
67572;SHT31;54397;47.506;19.158;2023-12-14T09:34:38;7.10;84.71
67572;SHT31;54397;47.506;19.158;2023-12-14T09:38:00;6.96;85.35
67572;SHT31;54397;47.506;19.158;2023-12-14T09:41:22;7.22;85.00
67572;SHT31;54397;47.506;19.158;2023-12-14T09:44:45;7.30;84.76
67572;SHT31;54397;47.506;19.158;2023-12-14T09:48:10;7.50;83.68
67572;SHT31;54397;47.506;19.158;2023-12-14T09:51:37;7.23;83.67
67572;SHT31;54397;47.506;19.158;2023-12-14T09:55:02;7.09;85.08
67572;SHT31;54397;47.506;19.158;2023-12-14T09:58:28;7.30;84.81
67572;SHT31;54397;47.506;19.158;2023-12-14T10:02:08;7.50;84.20
67572;SHT31;54397;47.506;19.158;2023-12-14T10:05:30;7.78;83.59
67572;SHT31;54397;47.506;19.158;2023-12-14T10:08:54;7.44;83.21
67572;SHT31;54397;47.506;19.158;2023-12-14T10:12:17;7.36;84.19
67572;SHT31;54397;47.506;19.158;2023-12-14T10:19:04;7.71;83.92
67572;SHT31;54397;47.506;19.158;2023-12-14T10:22:28;7.89;83.12
67572;SHT31;54397;47.506;19.158;2023-12-14T10:25:52;8.06;82.89
67572;SHT31;54397;47.506;19.158;2023-12-14T10:29:15;8.30;82.31
67572;SHT31;54397;47.506;19.158;2023-12-14T10:32:37;8.51;80.84
67572;SHT31;54397;47.506;19.158;2023-12-14T10:36:03;8.79;80.68
67572;SHT31;54397;47.506;19.158;2023-12-14T10:39:29;8.46;80.29
67572;SHT31;54397;47.506;19.158;2023-12-14T10:42:55;8.36;81.26
67572;SHT31;54397;47.506;19.158;2023-12-14T10:46:18;8.77;80.04
67572;SHT31;54397;47.506;19.158;2023-12-14T10:49:46;9.48;78.28
67572;SHT31;54397;47.506;19.158;2023-12-14T10:53:11;9.67;77.31
67572;SHT31;54397;47.506;19.158;2023-12-14T10:56:33;9.61;77.46
67572;SHT31;54397;47.506;19.158;2023-12-14T11:00:02;9.63;77.78
67572;SHT31;54397;47.506;19.158;2023-12-14T11:03:26;9.75;76.38
67572;SHT31;54397;47.506;19.158;2023-12-14T11:06:47;9.98;76.13
67572;SHT31;54397;47.506;19.158;2023-12-14T11:10:10;9.46;76.78
67572;SHT31;54397;47.506;19.158;2023-12-14T11:13:33;9.36;77.98
67572;SHT31;54397;47.506;19.158;2023-12-14T11:17:06;9.64;77.10
67572;SHT31;54397;47.506;19.158;2023-12-14T11:20:28;9.48;77.03
67572;SHT31;54397;47.506;19.158;2023-12-14T11:23:50;8.91;78.65
67572;SHT31;54397;47.506;19.158;2023-12-14T11:27:14;9.23;78.13
67572;SHT31;54397;47.506;19.158;2023-12-14T11:30:39;8.53;79.55
67572;SHT31;54397;47.506;19.158;2023-12-14T11:34:15;8.49;79.89
67572;SHT31;54397;47.506;19.158;2023-12-14T11:37:37;9.05;79.07
67572;SHT31;54397;47.506;19.158;2023-12-14T11:40:59;9.36;78.60
67572;SHT31;54397;47.506;19.158;2023-12-14T11:44:25;9.60;77.79
67572;SHT31;54397;47.506;19.158;2023-12-14T11:47:47;9.85;76.49
67572;SHT31;54397;47.506;19.158;2023-12-14T11:51:09;10.04;76.07
67572;SHT31;54397;47.506;19.158;2023-12-14T11:54:31;10.05;75.67
67572;SHT31;54397;47.506;19.158;2023-12-14T11:57:56;10.28;75.24
67572;SHT31;54397;47.506;19.158;2023-12-14T12:01:18;9.88;75.62
67572;SHT31;54397;47.506;19.158;2023-12-14T12:04:50;9.47;77.54
67572;SHT31;54397;47.506;19.158;2023-12-14T12:08:14;9.54;77.56
67572;SHT31;54397;47.506;19.158;2023-12-14T12:11:40;9.43;77.50
67572;SHT31;54397;47.506;19.158;2023-12-14T12:15:03;9.44;78.08
67572;SHT31;54397;47.506;19.158;2023-12-14T12:18:25;9.54;77.08
67572;SHT31;54397;47.506;19.158;2023-12-14T12:21:47;9.16;77.36
67572;SHT31;54397;47.506;19.158;2023-12-14T12:25:09;9.83;77.01
67572;SHT31;54397;47.506;19.158;2023-12-14T12:28:36;10.50;74.33
67572;SHT31;54397;47.506;19.158;2023-12-14T12:31:58;11.14;73.63
67572;SHT31;54397;47.506;19.158;2023-12-14T12:35:20;12.27;69.63
67572;SHT31;54397;47.506;19.158;2023-12-14T12:38:45;13.65;66.29
67572;SHT31;54397;47.506;19.158;2023-12-14T12:42:07;14.36;63.64
67572;SHT31;54397;47.506;19.158;2023-12-14T12:45:28;14.31;60.93
67572;SHT31;54397;47.506;19.158;2023-12-14T12:48:50;15.16;60.82
67572;SHT31;54397;47.506;19.158;2023-12-14T12:52:17;13.95;62.18
67572;SHT31;54397;47.506;19.158;2023-12-14T12:55:39;15.08;59.32
67572;SHT31;54397;47.506;19.158;2023-12-14T12:59:01;15.70;58.18
67572;SHT31;54397;47.506;19.158;2023-12-14T13:02:32;15.80;57.19
67572;SHT31;54397;47.506;19.158;2023-12-14T13:05:54;15.27;59.03
67572;SHT31;54397;47.506;19.158;2023-12-14T13:09:21;16.16;56.16
67572;SHT31;54397;47.506;19.158;2023-12-14T13:12:45;15.91;56.23
67572;SHT31;54397;47.506;19.158;2023-12-14T13:16:06;14.47;58.26
67572;SHT31;54397;47.506;19.158;2023-12-14T13:19:28;14.16;61.14
67572;SHT31;54397;47.506;19.158;2023-12-14T13:22:50;13.48;63.14
67572;SHT31;54397;47.506;19.158;2023-12-14T13:26:17;12.88;65.31
67572;SHT31;54397;47.506;19.158;2023-12-14T13:29:41;12.11;67.31
67572;SHT31;54397;47.506;19.158;2023-12-14T13:33:03;11.07;70.21
67572;SHT31;54397;47.506;19.158;2023-12-14T13:36:25;10.69;72.52
67572;SHT31;54397;47.506;19.158;2023-12-14T13:39:47;10.45;73.50
67572;SHT31;54397;47.506;19.158;2023-12-14T13:43:13;10.66;73.10
67572;SHT31;54397;47.506;19.158;2023-12-14T13:46:40;10.36;73.74
67572;SHT31;54397;47.506;19.158;2023-12-14T13:50:02;9.73;75.45
67572;SHT31;54397;47.506;19.158;2023-12-14T13:53:25;9.64;75.90
67572;SHT31;54397;47.506;19.158;2023-12-14T13:56:47;9.33;77.22
67572;SHT31;54397;47.506;19.158;2023-12-14T14:00:12;9.02;78.30
67572;SHT31;54397;47.506;19.158;2023-12-14T14:03:35;9.18;78.19
67572;SHT31;54397;47.506;19.158;2023-12-14T14:06:59;9.32;77.43
67572;SHT31;54397;47.506;19.158;2023-12-14T14:10:23;9.35;77.52
67572;SHT31;54397;47.506;19.158;2023-12-14T14:13:45;10.01;88.05
67572;SHT31;54397;47.506;19.158;2023-12-14T14:17:09;10.52;84.70
67572;SHT31;54397;47.506;19.158;2023-12-14T14:20:34;10.81;79.82
67572;SHT31;54397;47.506;19.158;2023-12-14T14:23:58;10.81;78.67
67572;SHT31;54397;47.506;19.158;2023-12-14T14:27:20;10.79;78.73
67572;SHT31;54397;47.506;19.158;2023-12-14T14:30:41;10.45;74.02
67572;SHT31;54397;47.506;19.158;2023-12-14T14:34:03;10.05;75.07
67572;SHT31;54397;47.506;19.158;2023-12-14T14:37:28;9.70;76.43
67572;SHT31;54397;47.506;19.158;2023-12-14T14:40:52;9.44;77.14
67572;SHT31;54397;47.506;19.158;2023-12-14T14:44:14;9.26;77.73
67572;SHT31;54397;47.506;19.158;2023-12-14T14:47:35;9.09;78.27
67572;SHT31;54397;47.506;19.158;2023-12-14T14:50:57;9.01;78.75
67572;SHT31;54397;47.506;19.158;2023-12-14T14:54:19;9.06;78.46
67572;SHT31;54397;47.506;19.158;2023-12-14T14:57:43;8.97;78.46
67572;SHT31;54397;47.506;19.158;2023-12-14T15:01:07;8.75;79.01
67572;SHT31;54397;47.506;19.158;2023-12-14T15:04:29;8.67;79.31
67572;SHT31;54397;47.506;19.158;2023-12-14T15:07:53;8.98;85.26
67572;SHT31;54397;47.506;19.158;2023-12-14T15:11:15;9.32;84.59
67572;SHT31;54397;47.506;19.158;2023-12-14T15:14:37;9.69;83.68
67572;SHT31;54397;47.506;19.158;2023-12-14T15:17:59;9.85;82.40
67572;SHT31;54397;47.506;19.158;2023-12-14T15:21:20;9.94;80.71
67572;SHT31;54397;47.506;19.158;2023-12-14T15:24:42;9.85;76.70
67572;SHT31;54397;47.506;19.158;2023-12-14T15:28:04;9.58;76.12
67572;SHT31;54397;47.506;19.158;2023-12-14T15:31:26;9.40;76.17
67572;SHT31;54397;47.506;19.158;2023-12-14T15:34:48;9.35;76.54
67572;SHT31;54397;47.506;19.158;2023-12-14T15:38:11;9.20;76.58
67572;SHT31;54397;47.506;19.158;2023-12-14T15:41:33;9.16;76.99
67572;SHT31;54397;47.506;19.158;2023-12-14T15:44:57;8.91;77.64
67572;SHT31;54397;47.506;19.158;2023-12-14T15:48:18;8.87;77.87
67572;SHT31;54397;47.506;19.158;2023-12-14T15:51:43;8.81;78.12
67572;SHT31;54397;47.506;19.158;2023-12-14T15:55:08;8.85;78.17
67572;SHT31;54397;47.506;19.158;2023-12-14T15:58:32;8.77;78.46
67572;SHT31;54397;47.506;19.158;2023-12-14T16:01:53;8.82;78.49
67572;SHT31;54397;47.506;19.158;2023-12-14T16:05:18;8.71;79.00
67572;SHT31;54397;47.506;19.158;2023-12-14T16:08:40;8.60;79.63
67572;SHT31;54397;47.506;19.158;2023-12-14T16:12:01;8.49;80.13
67572;SHT31;54397;47.506;19.158;2023-12-14T16:15:29;8.43;80.57
67572;SHT31;54397;47.506;19.158;2023-12-14T16:18:51;8.33;80.58
67572;SHT31;54397;47.506;19.158;2023-12-14T16:22:13;8.30;81.00
67572;SHT31;54397;47.506;19.158;2023-12-14T16:25:35;8.19;81.06
67572;SHT31;54397;47.506;19.158;2023-12-14T16:28:56;8.10;81.68
67572;SHT31;54397;47.506;19.158;2023-12-14T16:32:21;7.96;82.20
67572;SHT31;54397;47.506;19.158;2023-12-14T16:35:44;7.88;82.43
67572;SHT31;54397;47.506;19.158;2023-12-14T16:39:06;8.44;91.57
67572;SHT31;54397;47.506;19.158;2023-12-14T16:42:31;9.27;92.35
67572;SHT31;54397;47.506;19.158;2023-12-14T16:45:56;9.58;88.31
67572;SHT31;54397;47.506;19.158;2023-12-14T16:49:18;9.74;82.80
67572;SHT31;54397;47.506;19.158;2023-12-14T16:52:42;9.66;82.01
67572;SHT31;54397;47.506;19.158;2023-12-14T16:56:04;9.37;77.82
67572;SHT31;54397;47.506;19.158;2023-12-14T16:59:26;9.14;78.20
67572;SHT31;54397;47.506;19.158;2023-12-14T17:02:48;8.79;79.04
67572;SHT31;54397;47.506;19.158;2023-12-14T17:06:10;8.53;79.96
67572;SHT31;54397;47.506;19.158;2023-12-14T17:09:35;8.33;80.79
67572;SHT31;54397;47.506;19.158;2023-12-14T17:12:57;8.16;81.19
67572;SHT31;54397;47.506;19.158;2023-12-14T17:16:19;8.02;81.70
67572;SHT31;54397;47.506;19.158;2023-12-14T17:19:41;7.88;82.16
67572;SHT31;54397;47.506;19.158;2023-12-14T17:23:05;7.84;82.45
67572;SHT31;54397;47.506;19.158;2023-12-14T17:26:28;7.77;82.59
67572;SHT31;54397;47.506;19.158;2023-12-14T17:29:50;7.92;82.11
67572;SHT31;54397;47.506;19.158;2023-12-14T17:33:14;7.86;82.26
67572;SHT31;54397;47.506;19.158;2023-12-14T17:36:38;7.85;82.47
67572;SHT31;54397;47.506;19.158;2023-12-14T17:40:03;7.82;82.66
67572;SHT31;54397;47.506;19.158;2023-12-14T17:43:25;8.17;88.71
67572;SHT31;54397;47.506;19.158;2023-12-14T17:46:49;8.53;87.70
67572;SHT31;54397;47.506;19.158;2023-12-14T17:50:13;8.81;85.51
67572;SHT31;54397;47.506;19.158;2023-12-14T17:53:37;9.11;84.29
67572;SHT31;54397;47.506;19.158;2023-12-14T17:57:00;9.29;83.38
67572;SHT31;54397;47.506;19.158;2023-12-14T18:00:22;9.46;82.80
67572;SHT31;54397;47.506;19.158;2023-12-14T18:03:46;9.54;82.67
67572;SHT31;54397;47.506;19.158;2023-12-14T18:07:10;9.14;77.38
67572;SHT31;54397;47.506;19.158;2023-12-14T18:10:36;8.75;78.24
67572;SHT31;54397;47.506;19.158;2023-12-14T18:13:58;8.51;78.97
67572;SHT31;54397;47.506;19.158;2023-12-14T18:17:22;8.19;79.91
67572;SHT31;54397;47.506;19.158;2023-12-14T18:20:44;8.05;80.32
67572;SHT31;54397;47.506;19.158;2023-12-14T18:24:06;7.89;80.79
67572;SHT31;54397;47.506;19.158;2023-12-14T18:27:27;7.75;81.16
67572;SHT31;54397;47.506;19.158;2023-12-14T18:30:49;7.78;80.88
67572;SHT31;54397;47.506;19.158;2023-12-14T18:34:14;7.77;80.74
67572;SHT31;54397;47.506;19.158;2023-12-14T18:37:38;7.81;80.36
67572;SHT31;54397;47.506;19.158;2023-12-14T18:41:02;7.68;80.83
67572;SHT31;54397;47.506;19.158;2023-12-14T18:44:27;7.65;80.94
67572;SHT31;54397;47.506;19.158;2023-12-14T18:47:49;7.68;80.60
67572;SHT31;54397;47.506;19.158;2023-12-14T18:51:13;7.84;80.07
67572;SHT31;54397;47.506;19.158;2023-12-14T18:54:38;7.43;80.42
67572;SHT31;54397;47.506;19.158;2023-12-14T18:58:04;7.38;81.59
67572;SHT31;54397;47.506;19.158;2023-12-14T19:01:28;7.65;87.80
67572;SHT31;54397;47.506;19.158;2023-12-14T19:04:50;8.03;86.67
67572;SHT31;54397;47.506;19.158;2023-12-14T19:08:14;8.32;85.10
67572;SHT31;54397;47.506;19.158;2023-12-14T19:11:36;8.43;83.67
67572;SHT31;54397;47.506;19.158;2023-12-14T19:15:00;8.64;83.72
67572;SHT31;54397;47.506;19.158;2023-12-14T19:18:22;8.74;83.20
67572;SHT31;54397;47.506;19.158;2023-12-14T19:21:46;8.40;77.95
67572;SHT31;54397;47.506;19.158;2023-12-14T19:25:10;8.19;78.35
67572;SHT31;54397;47.506;19.158;2023-12-14T19:28:32;7.92;78.86
67572;SHT31;54397;47.506;19.158;2023-12-14T19:31:56;7.77;79.48
67572;SHT31;54397;47.506;19.158;2023-12-14T19:35:18;7.60;80.01
67572;SHT31;54397;47.506;19.158;2023-12-14T19:38:41;7.46;80.58
67572;SHT31;54397;47.506;19.158;2023-12-14T19:42:07;7.46;80.42
67572;SHT31;54397;47.506;19.158;2023-12-14T19:45:29;7.44;80.53
67572;SHT31;54397;47.506;19.158;2023-12-14T19:48:51;7.43;80.63
67572;SHT31;54397;47.506;19.158;2023-12-14T19:52:13;7.31;80.78
67572;SHT31;54397;47.506;19.158;2023-12-14T19:55:37;7.15;81.46
67572;SHT31;54397;47.506;19.158;2023-12-14T19:58:58;7.20;81.19
67572;SHT31;54397;47.506;19.158;2023-12-14T20:02:22;7.24;80.98
67572;SHT31;54397;47.506;19.158;2023-12-14T20:05:44;7.20;81.07
67572;SHT31;54397;47.506;19.158;2023-12-14T20:09:08;7.37;80.87
67572;SHT31;54397;47.506;19.158;2023-12-14T20:12:29;7.36;86.76
67572;SHT31;54397;47.506;19.158;2023-12-14T20:15:52;7.63;87.63
67572;SHT31;54397;47.506;19.158;2023-12-14T20:19:14;7.79;86.32
67572;SHT31;54397;47.506;19.158;2023-12-14T20:22:36;7.96;85.43
67572;SHT31;54397;47.506;19.158;2023-12-14T20:26:00;8.22;84.30
67572;SHT31;54397;47.506;19.158;2023-12-14T20:29:22;8.28;80.06
67572;SHT31;54397;47.506;19.158;2023-12-14T20:32:44;7.92;78.29
67572;SHT31;54397;47.506;19.158;2023-12-14T20:36:06;7.57;79.48
67572;SHT31;54397;47.506;19.158;2023-12-14T20:39:28;7.43;79.99
67572;SHT31;54397;47.506;19.158;2023-12-14T20:42:50;7.31;80.13
67572;SHT31;54397;47.506;19.158;2023-12-14T20:46:12;7.12;80.74
67572;SHT31;54397;47.506;19.158;2023-12-14T20:49:33;7.02;81.21
67572;SHT31;54397;47.506;19.158;2023-12-14T20:52:57;6.89;81.42
67572;SHT31;54397;47.506;19.158;2023-12-14T20:56:21;6.95;81.04
67572;SHT31;54397;47.506;19.158;2023-12-14T20:59:45;6.74;81.77
67572;SHT31;54397;47.506;19.158;2023-12-14T21:03:10;6.64;82.38
67572;SHT31;54397;47.506;19.158;2023-12-14T21:06:35;6.64;82.00
67572;SHT31;54397;47.506;19.158;2023-12-14T21:09:57;6.68;81.73
67572;SHT31;54397;47.506;19.158;2023-12-14T21:13:19;6.55;82.26
67572;SHT31;54397;47.506;19.158;2023-12-14T21:16:42;6.51;82.32
67572;SHT31;54397;47.506;19.158;2023-12-14T21:20:11;6.41;82.62
67572;SHT31;54397;47.506;19.158;2023-12-14T21:23:33;6.31;83.40
67572;SHT31;54397;47.506;19.158;2023-12-14T21:26:55;6.37;83.22
67572;SHT31;54397;47.506;19.158;2023-12-14T21:30:35;6.16;82.66